Aérodrome :
LOGIN :

S'inscrire | Disclaimer

   EN    FR    IT 

 










Légende :    VFR   VFR Marginal   IFR   IFR Intensif   IFR Très Intensif
Visi : 
Plafond : 
>= 8 km
>= 3000ft
5 à 8 km
1000 à 3000 ft
1500m à 5 km
500 à 1000 ft
800 à 1500m
200 à 500 ft
< 800m
< 200 ft
Symboles :   Orages  Brouillard  Fortes neiges  Fortes précipitations  Vent > 20 kt
SIGMETs :   Divers  Orages  Givrage  Turbulence  Onde Orograph.  Cendres Volcan.






- Altitude de l'aérodrome : 38 ft
- Code IATA : TRE


EGPU - Tiree

DERNIER METAR :
  • 020650Z AUTO 30022KT 270V330 8000 BKN042/// 08/05 Q1010 RERA

METARs EXPIRÉS :
  • 020620Z AUTO 29023KT 7000 -RA FEW020/// BKN035/// 07/05 Q1010
  • 020550Z AUTO 29021G33KT 260V320 9999 BKN042/// 08/05 Q1010
  • 020520Z AUTO 29024KT 9999 FEW027/// BKN035/// 08/05 Q1010 REDZ
  • 020450Z AUTO 30019KT 260V320 7000 FEW012/// BKN027/// 08/06 Q1010 REDZ
  • 020420Z AUTO 29024KT 9999 FEW007/// BKN033/// 08/07 Q1011 REDZ

TAF TAF EGPU
Valide du 02 à 06h jusqu'au 02 à 15h UTC


020457Z 0206/0215 28020KT 9999 SCT025
TEMPO 0206/0214 29025G35KT
PROB40
TEMPO 0206/0215 4000 -SHSN BKN012



MET'MAP, la Météo Aéronautique d'un coup d'oeil ! - Copyright ORBIFLY Décembre 2007 - Disclaimer

ORBIFLY MET'MAP TEAM :

Programmation & Développement : Alexandra Zaïnal
Sur une idée originale de : Baudouin d'Aumeries
Assistance à la programmation : Marc-Olivier Méhu
Soutien technique & logistique : Manuel Goepfert

Contact : metmap@orbifly.com




SOURCES & CREDITS :

   NOAA